Time;durP1;ratioP1;P1;durP2;ratioP2;P2;SDS_P1;SDS_P2;PMS_P1;PMS_P2;Temp;Humidity;BMP_temperature;BMP_pressure;BME280_temperature;BME280_humidity;BME280_pressure;Samples;Min_cycle;Max_cycle;Signal;HPM_P1;HPM_P2
2022/08/30 00:01:28;;;;;;;;;;;;;;;24.18;61.23;100048.56;4399113;32;35385;-86
2022/08/30 00:03:57;;;;;;;;;;;;;;;24.19;61.17;100041.31;4397872;32;34352;-86
2022/08/30 00:06:25;;;;;;;;;;;;;;;24.19;61.06;100039.44;4399338;32;35060;-86
2022/08/30 00:08:53;;;;;;;;;;;;;;;24.17;61.14;100040.63;4399281;32;31953;-86
2022/08/30 00:11:22;;;;;;;;;;;;;;;24.19;61.12;100042.16;4397767;32;33756;-86
2022/08/30 00:13:51;;;;;;;;;;;;;;;24.27;60.78;100034.16;4404982;32;34073;-86
2022/08/30 00:16:19;;;;;;;;;;;;;;;24.21;61.02;100045.56;4401616;32;33580;-87
2022/08/30 00:18:50;;;;;;;;;;;;;;;24.05;61.55;100042.62;4402658;32;32338;-87
2022/08/30 00:21:18;;;;;;;;;;;;;;;24.23;60.90;100040.84;4393131;32;32954;-87
2022/08/30 00:23:54;;;;;;;;;;;;;;;24.60;60.24;100031.06;4484634;31;924194;-86
2022/08/30 00:26:22;;;;;;;;;;;;;;;24.60;60.24;100031.06;4504502;31;33207;-85
2022/08/30 00:28:49;;;;;;;;;;;;;;;24.01;61.54;100043.91;4506800;31;34886;-85
2022/08/30 00:31:17;;;;;;;;;;;;;;;23.79;62.32;100044.28;4482866;31;34511;-85
2022/08/30 00:33:44;;;;;;;;;;;;;;;23.99;61.58;100037.84;4494543;31;34644;-84
2022/08/30 00:36:12;;;;;;;;;;;;;;;24.02;61.52;100043.78;4489081;32;32520;-85
2022/08/30 00:38:39;;;;;;;;;;;;;;;24.10;61.18;100040.34;4498528;31;34811;-84
2022/08/30 00:41:07;;;;;;;;;;;;;;;24.07;61.33;100045.16;4481458;31;34021;-84
2022/08/30 00:43:35;;;;;;;;;;;;;;;24.04;61.35;100042.78;4489670;31;33522;-84
2022/08/30 00:46:06;;;;;;;;;;;;;;;23.91;61.58;100043.09;4501444;31;32807;-84
2022/08/30 00:48:35;;;;;;;;;;;;;;;23.75;62.20;100041.88;4499299;31;34699;-84
2022/08/30 00:51:05;;;;;;;;;;;;;;;23.79;62.08;100041.59;4489855;31;34183;-84
2022/08/30 00:53:36;;;;;;;;;;;;;;;24.02;61.21;100035.69;4472358;31;32791;-84
2022/08/30 00:56:05;;;;;;;;;;;;;;;23.80;61.94;100046.84;4479697;31;33074;-84
2022/08/30 00:58:33;;;;;;;;;;;;;;;24.03;61.10;100044.63;4502669;31;33714;-84
2022/08/30 01:01:01;;;;;;;;;;;;;;;23.87;61.58;100049.78;4494060;31;34254;-84
2022/08/30 01:03:29;;;;;;;;;;;;;;;23.81;61.97;100034.19;4490261;31;33926;-84
2022/08/30 01:05:57;;;;;;;;;;;;;;;23.95;61.29;100036.44;4478553;31;32159;-84
2022/08/30 01:08:24;;;;;;;;;;;;;;;24.01;60.95;100035.81;4463313;32;32982;-84
2022/08/30 01:10:53;;;;;;;;;;;;;;;23.99;61.08;100038.69;4477607;31;33639;-84
2022/08/30 01:13:21;;;;;;;;;;;;;;;23.96;61.17;100038.97;4478828;31;32835;-84
2022/08/30 01:15:49;;;;;;;;;;;;;;;23.61;62.29;100036.91;4490317;31;32777;-84
2022/08/30 01:18:17;;;;;;;;;;;;;;;23.37;63.22;100040.06;4478934;31;33457;-84
2022/08/30 01:20:48;;;;;;;;;;;;;;;23.41;63.38;100032.56;4493557;31;34231;-84
2022/08/30 01:23:18;;;;;;;;;;;;;;;23.56;62.76;100031.09;4491125;31;33013;-85
2022/08/30 01:25:47;;;;;;;;;;;;;;;23.64;62.58;100038.47;4479267;31;32982;-85
2022/08/30 01:28:25;;;;;;;;;;;;;;;23.72;62.24;100034.06;4487725;31;33426;-85
2022/08/30 01:30:53;;;;;;;;;;;;;;;23.80;61.91;100036.06;4492619;31;34977;-85
2022/08/30 01:33:21;;;;;;;;;;;;;;;23.91;61.28;100035.00;4483956;31;34700;-85
2022/08/30 01:36:10;;;;;;;;;;;;;;;23.98;60.90;100030.75;4479943;31;33246;-85
2022/08/30 01:38:39;;;;;;;;;;;;;;;23.92;60.85;100034.00;4465496;31;32944;-86
2022/08/30 01:41:13;;;;;;;;;;;;;;;24.13;60.26;100033.81;4478861;31;34113;-85
2022/08/30 01:43:41;;;;;;;;;;;;;;;23.95;60.92;100031.03;4465903;31;32832;-85
2022/08/30 01:46:10;;;;;;;;;;;;;;;23.88;61.14;100030.78;4467873;31;32655;-85
2022/08/30 01:48:39;;;;;;;;;;;;;;;23.86;61.06;100029.22;4490803;31;34909;-84
2022/08/30 01:51:09;;;;;;;;;;;;;;;23.86;60.80;100029.22;4490642;31;33839;-85
2022/08/30 01:53:37;;;;;;;;;;;;;;;23.91;60.50;100030.47;4454487;31;33268;-85
2022/08/30 01:56:06;;;;;;;;;;;;;;;23.84;60.66;100023.97;4494102;31;32974;-85
2022/08/30 01:58:35;;;;;;;;;;;;;;;23.72;60.95;100025.97;4492119;31;33436;-85
2022/08/30 02:01:03;;;;;;;;;;;;;;;23.53;61.40;100020.59;4492628;31;35013;-85
2022/08/30 02:03:34;;;;;;;;;;;;;;;23.56;61.18;100020.31;4479362;31;34383;-85
2022/08/30 02:06:03;;;;;;;;;;;;;;;23.53;61.17;100023.28;4480801;31;33319;-85
2022/08/30 02:08:31;;;;;;;;;;;;;;;23.52;61.13;100018.91;4489083;31;34487;-85
2022/08/30 02:11:01;;;;;;;;;;;;;;;23.51;61.31;100018.06;4474626;31;34994;-85
2022/08/30 02:13:29;;;;;;;;;;;;;;;23.58;61.15;100017.47;4464860;32;33335;-85
2022/08/30 02:15:56;;;;;;;;;;;;;;;23.68;60.64;100018.34;4466272;31;33423;-85
2022/08/30 02:18:24;;;;;;;;;;;;;;;23.63;60.79;100016.03;4468203;31;33648;-85
2022/08/30 02:20:52;;;;;;;;;;;;;;;23.58;60.99;100017.47;4473282;32;33432;-85
2022/08/30 02:23:19;;;;;;;;;;;;;;;23.61;60.84;100018.03;4446490;32;32851;-85
2022/08/30 02:25:47;;;;;;;;;;;;;;;23.56;60.85;100009.53;4453698;32;32056;-85
2022/08/30 02:28:18;;;;;;;;;;;;;;;23.35;61.64;100012.41;4455766;32;34264;-85
2022/08/30 02:30:51;;;;;;;;;;;;;;;23.43;61.45;100014.38;4451085;32;35154;-85
2022/08/30 02:33:19;;;;;;;;;;;;;;;23.30;61.56;100013.81;4432644;32;32543;-85
2022/08/30 02:35:46;;;;;;;;;;;;;;;23.26;61.48;100021.34;4455167;32;33588;-85
2022/08/30 02:38:14;;;;;;;;;;;;;;;23.21;61.74;100027.16;4455102;32;34518;-85
2022/08/30 02:40:46;;;;;;;;;;;;;;;23.30;61.46;100019.22;4455234;32;33827;-84
2022/08/30 02:43:13;;;;;;;;;;;;;;;23.30;61.29;100019.22;4454643;32;33328;-83
2022/08/30 02:45:42;;;;;;;;;;;;;;;23.10;61.91;100024.63;4454571;32;32144;-83
2022/08/30 02:48:09;;;;;;;;;;;;;;;23.17;61.72;100023.06;4455098;32;32725;-83
2022/08/30 02:50:41;;;;;;;;;;;;;;;23.11;62.01;100023.63;4454877;32;33306;-83
2022/08/30 02:53:10;;;;;;;;;;;;;;;23.17;61.86;100024.91;4467775;32;34682;-83
2022/08/30 02:55:43;;;;;;;;;;;;;;;23.17;61.81;100027.59;4455768;32;33052;-83
2022/08/30 02:58:11;;;;;;;;;;;;;;;23.07;61.93;100024.88;4455779;32;34243;-83
2022/08/30 03:00:40;;;;;;;;;;;;;;;23.04;61.92;100021.66;4455933;32;33099;-83
2022/08/30 03:03:07;;;;;;;;;;;;;;;22.94;62.15;100018.94;4455666;32;33584;-83
2022/08/30 03:05:35;;;;;;;;;;;;;;;22.87;62.31;100012.38;4468402;32;33207;-83
2022/08/30 03:08:07;;;;;;;;;;;;;;;22.68;62.97;100019.44;4455227;32;34296;-84
2022/08/30 03:10:35;;;;;;;;;;;;;;;22.75;62.76;100023.28;4467834;32;33948;-82
2022/08/30 03:13:06;;;;;;;;;;;;;;;22.83;62.53;100013.66;4448420;32;32802;-82
2022/08/30 03:15:34;;;;;;;;;;;;;;;22.90;62.27;100017.53;4466228;32;32398;-83
2022/08/30 03:18:02;;;;;;;;;;;;;;;22.70;63.16;100025.56;4456259;32;33289;-83
2022/08/30 03:20:36;;;;;;;;;;;;;;;22.87;62.74;100033.91;4456497;32;33971;-83
2022/08/30 03:23:05;;;;;;;;;;;;;;;22.73;63.13;100033.31;4471226;31;33870;-83
2022/08/30 03:25:34;;;;;;;;;;;;;;;22.91;62.42;100030.00;4478201;31;31721;-84
2022/08/30 03:28:04;;;;;;;;;;;;;;;22.80;62.72;100032.78;4489562;31;33955;-84
2022/08/30 03:30:33;;;;;;;;;;;;;;;22.67;63.04;100035.75;4464796;32;33935;-84
2022/08/30 03:33:03;;;;;;;;;;;;;;;22.78;62.50;100042.84;4466781;31;35318;-84
2022/08/30 03:35:34;;;;;;;;;;;;;;;22.67;62.93;100044.66;4478929;31;32208;-85
2022/08/30 03:38:01;;;;;;;;;;;;;;;22.63;62.79;100047.75;4463694;31;33977;-84
2022/08/30 03:40:33;;;;;;;;;;;;;;;22.54;63.00;100053.97;4483583;31;35116;-84
2022/08/30 03:43:02;;;;;;;;;;;;;;;22.52;63.11;100045.19;4477506;31;32906;-84
2022/08/30 03:45:30;;;;;;;;;;;;;;;22.49;63.18;100057.06;4492324;31;34012;-84
2022/08/30 03:47:59;;;;;;;;;;;;;;;22.49;63.17;100052.53;4479604;31;32290;-84
2022/08/30 03:50:27;;;;;;;;;;;;;;;22.45;63.28;100058.34;4485461;31;33903;-84
2022/08/30 03:52:55;;;;;;;;;;;;;;;22.47;63.07;100059.06;4476777;31;34281;-83
2022/08/30 03:55:23;;;;;;;;;;;;;;;22.52;62.90;100062.19;4479378;31;31914;-83
2022/08/30 03:57:50;;;;;;;;;;;;;;;22.50;62.84;100058.78;4480052;32;34775;-84
2022/08/30 04:00:18;;;;;;;;;;;;;;;22.38;63.21;100059.88;4463392;31;33495;-84
2022/08/30 04:02:46;;;;;;;;;;;;;;;22.43;63.07;100063.00;4476800;32;33878;-84
2022/08/30 04:05:14;;;;;;;;;;;;;;;22.12;64.14;100057.63;4474898;31;33088;-84
2022/08/30 04:07:47;;;;;;;;;;;;;;;22.22;63.83;100065.78;4494549;31;33715;-83
2022/08/30 04:10:15;;;;;;;;;;;;;;;22.29;63.61;100066.06;4492126;31;34352;-83
2022/08/30 04:12:43;;;;;;;;;;;;;;;22.23;63.91;100068.31;4490462;31;34179;-83
2022/08/30 04:15:17;;;;;;;;;;;;;;;22.13;64.29;100069.28;4480293;31;33046;-83
2022/08/30 04:17:47;;;;;;;;;;;;;;;22.41;63.21;100081.16;4479625;31;33368;-84
2022/08/30 04:20:26;;;;;;;;;;;;;;;22.14;64.17;100084.41;4479411;31;32551;-84
2022/08/30 04:22:58;;;;;;;;;;;;;;;22.16;64.29;100091.34;4498742;31;34773;-84
2022/08/30 04:25:26;;;;;;;;;;;;;;;22.29;63.81;100090.28;4466181;31;32490;-83
2022/08/30 04:27:54;;;;;;;;;;;;;;;22.14;64.47;100098.72;4487894;31;34995;-85
2022/08/30 04:30:22;;;;;;;;;;;;;;;22.34;63.87;100104.19;4493942;31;33644;-85
2022/08/30 04:32:50;;;;;;;;;;;;;;;22.32;63.76;100101.63;4466866;31;33246;-85
2022/08/30 04:35:24;;;;;;;;;;;;;;;22.05;64.78;100112.91;4480964;31;32890;-85
2022/08/30 04:37:53;;;;;;;;;;;;;;;22.23;64.42;100115.88;4471574;31;33392;-85
2022/08/30 04:40:20;;;;;;;;;;;;;;;22.14;64.91;100117.53;4463718;31;33581;-85
2022/08/30 04:42:52;;;;;;;;;;;;;;;22.18;65.12;100112.75;4485588;31;33828;-84
2022/08/30 04:45:20;;;;;;;;;;;;;;;22.26;64.92;100125.50;4472221;32;33487;-84
2022/08/30 04:47:49;;;;;;;;;;;;;;;21.98;66.44;100126.06;4451420;31;33437;-84
2022/08/30 04:50:18;;;;;;;;;;;;;;;22.08;66.22;100118.03;4489564;31;35231;-84
2022/08/30 04:52:47;;;;;;;;;;;;;;;22.07;66.48;100128.91;4467169;31;32833;-84
2022/08/30 04:55:16;;;;;;;;;;;;;;;22.30;65.82;100135.87;4476258;31;33688;-81
2022/08/30 04:57:48;;;;;;;;;;;;;;;22.42;65.67;100131.28;4484074;31;33510;-83
2022/08/30 05:02:58;;;;;;;;;;;;;;;22.93;63.93;100125.81;4488392;31;35842;-83
2022/08/30 05:05:40;;;;;;;;;;;;;;;23.03;63.72;100124.97;4486093;31;33776;-83
2022/08/30 05:08:15;;;;;;;;;;;;;;;23.16;63.47;100137.16;4473050;31;32851;-83
2022/08/30 05:10:47;;;;;;;;;;;;;;;23.08;64.14;100131.66;4480310;31;34430;-83
2022/08/30 05:13:15;;;;;;;;;;;;;;;23.23;63.43;100132.94;4474444;31;32773;-83
2022/08/30 05:15:44;;;;;;;;;;;;;;;23.21;63.55;100139.44;4460892;31;31858;-83
2022/08/30 05:18:20;;;;;;;;;;;;;;;23.24;63.42;100139.19;4475613;31;34624;-85
2022/08/30 05:21:03;;;;;;;;;;;;;;;23.23;62.89;100137.47;4500650;31;34678;-85
2022/08/30 05:23:31;;;;;;;;;;;;;;;23.20;62.67;100144.00;4463848;31;32894;-85
2022/08/30 05:26:03;;;;;;;;;;;;;;;23.10;63.31;100135.03;4478735;31;31935;-85
2022/08/30 05:28:31;;;;;;;;;;;;;;;23.14;63.27;100143.72;4487987;31;34283;-85
2022/08/30 05:31:00;;;;;;;;;;;;;;;22.93;64.22;100141.09;4488091;31;35148;-85
2022/08/30 05:33:34;;;;;;;;;;;;;;;22.79;65.17;100144.12;4472558;31;33191;-85
2022/08/30 05:36:08;;;;;;;;;;;;;;;22.98;64.76;100138.87;4482689;31;33761;-84
2022/08/30 05:38:36;;;;;;;;;;;;;;;23.12;64.68;100143.84;4470150;31;34072;-84
2022/08/30 05:41:05;;;;;;;;;;;;;;;23.18;64.63;100143.28;4479431;31;33894;-84
2022/08/30 05:43:37;;;;;;;;;;;;;;;23.27;64.94;100141.59;4476993;31;34682;-84
2022/08/30 05:46:06;;;;;;;;;;;;;;;23.47;64.20;100147.84;4453550;31;30404;-84
2022/08/30 05:48:34;;;;;;;;;;;;;;;23.45;63.83;100137.22;4471838;31;33998;-85
2022/08/30 05:51:04;;;;;;;;;;;;;;;23.72;63.10;100135.66;4473053;32;33838;-88
2022/08/30 05:53:34;;;;;;;;;;;;;;;23.84;62.28;100144.47;4473494;32;33738;-87
2022/08/30 05:59:55;;;;;;;;;;;;;;;23.47;62.24;100139.78;4500163;31;35014;-87
2022/08/30 06:02:32;;;;;;;;;;;;;;;23.60;60.11;100140.34;4455148;32;33389;-87
2022/08/30 06:05:02;;;;;;;;;;;;;;;23.63;58.56;100139.19;4462813;31;34138;-87
2022/08/30 06:07:34;;;;;;;;;;;;;;;23.97;57.53;100142.31;4470841;31;32150;-87
2022/08/30 06:10:02;;;;;;;;;;;;;;;24.09;54.83;100145.69;4482365;31;32800;-88
2022/08/30 06:12:31;;;;;;;;;;;;;;;24.24;53.83;100147.78;4482180;31;34311;-88
2022/08/30 06:14:59;;;;;;;;;;;;;;;24.10;54.73;100148.25;4465546;31;33067;-88
2022/08/30 06:17:27;;;;;;;;;;;;;;;24.23;52.62;100146.09;4472347;31;33042;-88
2022/08/30 06:20:01;;;;;;;;;;;;;;;24.65;51.13;100153.78;4490078;31;34313;-88
2022/08/30 06:27:53;;;;;;;;;;;;;;;25.04;50.64;100156.28;4479842;31;33187;-88
2022/08/30 06:30:23;;;;;;;;;;;;;;;24.85;49.05;100159.09;4477881;31;33929;-87
2022/08/30 06:32:51;;;;;;;;;;;;;;;24.75;50.50;100154.59;4470125;32;33228;-86
2022/08/30 06:35:24;;;;;;;;;;;;;;;25.10;51.27;100153.00;4473222;31;33960;-87
2022/08/30 06:37:56;;;;;;;;;;;;;;;25.19;50.06;100154.78;4491975;31;34084;-87
2022/08/30 06:40:24;;;;;;;;;;;;;;;25.05;48.25;100149.88;4481878;31;34508;-88
2022/08/30 06:42:53;;;;;;;;;;;;;;;25.08;48.24;100148.78;4478489;31;33369;-88
2022/08/30 06:45:23;;;;;;;;;;;;;;;24.98;48.82;100157.75;4465993;31;33644;-88
2022/08/30 06:47:58;;;;;;;;;;;;;;;25.39;47.42;100152.81;4466067;31;32515;-89
2022/08/30 06:50:26;;;;;;;;;;;;;;;25.71;47.79;100152.25;4474532;31;34023;-87
2022/08/30 06:53:14;;;;;;;;;;;;;;;25.34;47.27;100154.25;4461847;32;32923;-87
2022/08/30 06:55:42;;;;;;;;;;;;;;;25.41;47.55;100156.22;4478333;31;34449;-87
2022/08/30 06:58:11;;;;;;;;;;;;;;;25.34;48.82;100154.25;4461106;32;31967;-87
2022/08/30 07:00:40;;;;;;;;;;;;;;;25.24;48.41;100160.59;4470316;31;34153;-87
2022/08/30 07:03:09;;;;;;;;;;;;;;;25.65;46.23;100163.72;4463304;31;33423;-87
2022/08/30 07:05:45;;;;;;;;;;;;;;;25.94;45.63;100160.78;4467500;31;32677;-87
2022/08/30 07:08:19;;;;;;;;;;;;;;;25.47;48.02;100168.25;4481988;31;33795;-87
2022/08/30 07:10:53;;;;;;;;;;;;;;;26.16;45.15;100156.72;4469737;32;33564;-88
2022/08/30 07:13:22;;;;;;;;;;;;;;;26.16;45.35;100161.25;4459169;32;33509;-88
2022/08/30 07:15:51;;;;;;;;;;;;;;;26.34;45.36;100163.91;4448722;32;32640;-87
2022/08/30 07:21:15;;;;;;;;;;;;;;;26.68;45.08;100161.25;4487391;31;33438;-86
2022/08/30 07:23:47;;;;;;;;;;;;;;;26.39;44.38;100161.56;4493512;31;34094;-88
2022/08/30 07:26:23;;;;;;;;;;;;;;;26.68;44.24;100162.13;4465951;31;33388;-89
2022/08/30 07:28:51;;;;;;;;;;;;;;;26.86;42.89;100158.47;4474434;31;32166;-88
2022/08/30 07:31:24;;;;;;;;;;;;;;;26.55;43.69;100164.41;4474890;31;32931;-88
2022/08/30 07:33:53;;;;;;;;;;;;;;;26.85;43.06;100162.19;4475399;31;34188;-87
2022/08/30 07:36:25;;;;;;;;;;;;;;;26.84;42.71;100165.91;4475314;31;34782;-88
2022/08/30 07:38:53;;;;;;;;;;;;;;;26.62;44.83;100175.44;4481825;31;32478;-88
2022/08/30 07:41:25;;;;;;;;;;;;;;;26.72;44.25;100174.31;4479680;31;33031;-89
2022/08/30 07:43:54;;;;;;;;;;;;;;;26.84;44.53;100171.31;4478875;31;33879;-89
2022/08/30 07:46:25;;;;;;;;;;;;;;;27.03;43.20;100168.34;4466924;31;32711;-89
2022/08/30 07:53:00;;;;;;;;;;;;;;;27.05;45.14;100166.31;4326677;33;34253;-89
2022/08/30 07:55:28;;;;;;;;;;;;;;;27.01;42.64;100173.94;4334763;32;32789;-88
2022/08/30 07:57:55;;;;;;;;;;;;;;;27.28;42.83;100170.13;4343003;32;32816;-89
2022/08/30 08:00:23;;;;;;;;;;;;;;;27.39;42.07;100168.97;4347845;32;32552;-88
2022/08/30 08:02:50;;;;;;;;;;;;;;;27.77;43.14;100161.25;4347996;32;33410;-88
2022/08/30 08:05:18;;;;;;;;;;;;;;;28.12;41.53;100168.19;4344173;32;33572;-88
2022/08/30 08:07:51;;;;;;;;;;;;;;;28.20;38.83;100168.19;4354735;32;34144;-89
2022/08/30 08:10:18;;;;;;;;;;;;;;;27.92;40.35;100161.44;4356522;32;32138;-89
2022/08/30 08:12:46;;;;;;;;;;;;;;;27.85;40.45;100171.25;4367786;32;32857;-89
2022/08/30 08:15:13;;;;;;;;;;;;;;;28.19;39.01;100163.75;4341850;32;33322;-89
2022/08/30 08:17:40;;;;;;;;;;;;;;;27.97;39.44;100168.06;4351444;32;33292;-88
2022/08/30 08:20:08;;;;;;;;;;;;;;;28.11;38.51;100166.50;4357412;32;32548;-88
2022/08/30 08:22:37;;;;;;;;;;;;;;;28.03;39.46;100169.22;4344407;32;33240;-88
2022/08/30 08:25:06;;;;;;;;;;;;;;;27.76;41.96;100179.41;4357564;32;33867;-89
2022/08/30 08:27:33;;;;;;;;;;;;;;;27.88;39.48;100160.09;4355679;32;33649;-89
2022/08/30 08:30:01;;;;;;;;;;;;;;;28.13;39.71;100167.19;4422143;32;33236;-89
2022/08/30 08:32:28;;;;;;;;;;;;;;;28.35;38.76;100167.53;4455295;32;34018;-89
2022/08/30 08:34:56;;;;;;;;;;;;;;;28.13;38.56;100169.91;4442698;32;33031;-88
2022/08/30 08:37:23;;;;;;;;;;;;;;;28.04;40.10;100171.75;4442074;32;32963;-88
2022/08/30 08:39:54;;;;;;;;;;;;;;;28.16;38.50;100175.00;4455710;32;32627;-89
2022/08/30 08:42:34;;;;;;;;;;;;;;;28.17;39.26;100170.41;4440058;32;32858;-89
2022/08/30 08:45:10;;;;;;;;;;;;;;;28.22;39.79;100174.28;4451258;32;34923;-89
2022/08/30 08:47:39;;;;;;;;;;;;;;;28.30;37.99;100165.28;4465423;32;34108;-88
2022/08/30 08:50:10;;;;;;;;;;;;;;;28.62;37.71;100169.81;4451464;32;32241;-88
2022/08/30 08:55:32;;;;;;;;;;;;;;;28.63;37.48;100171.53;4468648;32;34585;-89
2022/08/30 08:58:00;;;;;;;;;;;;;;;28.36;37.57;100166.50;4458259;32;34353;-88
2022/08/30 09:00:28;;;;;;;;;;;;;;;28.34;37.37;100169.37;4439585;32;33168;-88
2022/08/30 09:02:58;;;;;;;;;;;;;;;28.43;38.70;100165.63;4441384;32;32886;-89
2022/08/30 09:05:26;;;;;;;;;;;;;;;28.67;38.76;100170.13;4449824;32;33736;-90
2022/08/30 09:08:00;;;;;;;;;;;;;;;28.52;37.27;100163.72;4457465;32;34096;-89
2022/08/30 09:10:28;;;;;;;;;;;;;;;29.18;37.34;100154.31;4449338;32;33032;-89
2022/08/30 09:13:15;;;;;;;;;;;;;;;29.45;37.46;100155.66;4453848;32;33921;-88
2022/08/30 09:15:45;;;;;;;;;;;;;;;29.64;36.24;100159.81;4445062;32;34237;-88
2022/08/30 09:18:27;;;;;;;;;;;;;;;29.41;38.84;100153.50;4452548;32;32777;-88
2022/08/30 09:20:56;;;;;;;;;;;;;;;29.59;37.79;100148.63;4460846;32;33983;-89
2022/08/30 09:23:31;;;;;;;;;;;;;;;29.70;36.74;100145.47;4451434;32;34107;-89
2022/08/30 09:26:07;;;;;;;;;;;;;;;29.98;37.29;100145.75;4433952;32;33928;-88
2022/08/30 09:28:50;;;;;;;;;;;;;;;30.04;36.09;100139.56;4455068;32;33240;-88
2022/08/30 09:31:17;;;;;;;;;;;;;;;30.33;34.20;100130.59;4467107;32;33424;-88
2022/08/30 09:34:02;;;;;;;;;;;;;;;30.07;34.55;100135.63;4455416;32;32938;-87
2022/08/30 09:36:44;;;;;;;;;;;;;;;29.32;38.62;100137.22;4470110;32;34150;-87
2022/08/30 09:39:27;;;;;;;;;;;;;;;29.76;37.35;100119.41;4470420;32;34097;-88
2022/08/30 09:42:11;;;;;;;;;;;;;;;30.15;39.27;100124.69;4470150;32;32405;-87
2022/08/30 09:44:39;;;;;;;;;;;;;;;30.67;34.50;100118.31;4470286;32;33326;-87
2022/08/30 09:55:01;;;;;;;;;;;;;;;29.56;35.74;100119.06;4482638;32;32539;-87
2022/08/30 09:57:35;;;;;;;;;;;;;;;29.42;37.93;100119.81;4457358;32;33640;-87
2022/08/30 10:00:07;;;;;;;;;;;;;;;29.63;35.85;100120.03;4471940;32;33037;-87
2022/08/30 10:02:39;;;;;;;;;;;;;;;30.08;36.50;100110.09;4473589;32;34672;-86
2022/08/30 10:05:15;;;;;;;;;;;;;;;30.02;36.20;100108.94;4460763;32;32375;-88
2022/08/30 10:07:43;;;;;;;;;;;;;;;29.66;37.19;100107.94;4451011;32;33799;-88
2022/08/30 10:10:15;;;;;;;;;;;;;;;29.72;36.24;100105.34;4466637;32;32169;-89
2022/08/30 10:12:48;;;;;;;;;;;;;;;29.74;37.10;100094.25;4460304;32;32762;-88
2022/08/30 10:15:16;;;;;;;;;;;;;;;29.73;36.85;100106.19;4467113;32;33341;-88
2022/08/30 10:18:06;;;;;;;;;;;;;;;29.88;36.85;100101.59;4462435;32;33208;-87
2022/08/30 10:20:34;;;;;;;;;;;;;;;29.94;35.63;100105.47;4481918;32;34117;-88
2022/08/30 10:23:07;;;;;;;;;;;;;;;30.04;36.93;100100.59;4480830;32;33678;-88
2022/08/30 10:25:39;;;;;;;;;;;;;;;30.03;37.38;100098.91;4482002;32;33283;-89
2022/08/30 10:28:11;;;;;;;;;;;;;;;30.14;37.04;100098.47;4461569;31;33884;-88
2022/08/30 10:30:41;;;;;;;;;;;;;;;30.12;35.06;100095.06;4479644;31;33018;-88
2022/08/30 10:33:12;;;;;;;;;;;;;;;30.18;36.23;100097.06;4485914;31;34753;-88
2022/08/30 10:35:47;;;;;;;;;;;;;;;30.35;37.70;100090.41;4479641;31;33571;-88
2022/08/30 10:38:15;;;;;;;;;;;;;;;30.84;37.48;100084.34;4472202;31;35041;-88
2022/08/30 10:43:39;;;;;;;;;;;;;;;30.58;35.99;100089.47;4475264;31;33964;-88
2022/08/30 10:46:26;;;;;;;;;;;;;;;30.69;35.02;100083.50;4472445;31;33308;-88
2022/08/30 10:48:56;;;;;;;;;;;;;;;30.34;36.07;100080.56;4493124;31;34115;-88
2022/08/30 10:51:26;;;;;;;;;;;;;;;30.79;36.48;100075.91;4470452;31;34770;-88
2022/08/30 10:54:09;;;;;;;;;;;;;;;31.02;35.83;100067.59;4455595;31;33658;-88
2022/08/30 10:56:38;;;;;;;;;;;;;;;31.46;35.37;100061.13;4479375;31;32774;-88
2022/08/30 10:59:08;;;;;;;;;;;;;;;31.92;35.42;100057.09;4458891;31;33315;-88
2022/08/30 11:01:44;;;;;;;;;;;;;;;32.00;34.37;100055.06;4474305;31;33738;-88
2022/08/30 11:04:18;;;;;;;;;;;;;;;32.32;34.06;100059.03;4470246;31;33082;-88
2022/08/30 11:07:06;;;;;;;;;;;;;;;32.63;33.45;100061.31;4454973;31;31976;-89
2022/08/30 11:09:39;;;;;;;;;;;;;;;32.92;31.55;100050.28;4465170;31;33547;-88
2022/08/30 11:12:26;;;;;;;;;;;;;;;32.69;32.08;100050.59;4477656;31;34036;-88
2022/08/30 11:15:00;;;;;;;;;;;;;;;32.92;32.31;100055.78;4484242;31;34163;-88
2022/08/30 11:17:29;;;;;;;;;;;;;;;32.66;32.97;100051.00;4483781;31;31927;-88
2022/08/30 11:19:57;;;;;;;;;;;;;;;33.21;31.32;100046.34;4447075;31;32935;-89
2022/08/30 11:22:29;;;;;;;;;;;;;;;33.19;31.33;100049.31;4460670;31;33623;-89
2022/08/30 11:25:11;;;;;;;;;;;;;;;32.67;31.43;100037.16;4469698;31;33684;-89
2022/08/30 11:27:46;;;;;;;;;;;;;;;32.11;32.64;100040.00;4463868;31;35005;-88
2022/08/30 11:30:24;;;;;;;;;;;;;;;31.83;32.58;100035.41;4472696;31;33201;-89
2022/08/30 11:33:11;;;;;;;;;;;;;;;31.82;33.08;100032.88;4480311;31;32582;-88
2022/08/30 11:35:51;;;;;;;;;;;;;;;31.70;37.27;100024.34;4474400;31;33200;-88
2022/08/30 11:38:25;;;;;;;;;;;;;;;31.70;33.78;100028.97;4472537;31;32220;-88
2022/08/30 11:40:53;;;;;;;;;;;;;;;31.60;33.86;100026.59;4473228;31;34897;-88
2022/08/30 11:43:32;;;;;;;;;;;;;;;31.65;34.95;100029.56;4486870;31;34113;-88
2022/08/30 11:46:13;;;;;;;;;;;;;;;31.58;37.07;100024.06;4471388;31;33298;-88
2022/08/30 11:48:50;;;;;;;;;;;;;;;32.09;33.74;100018.38;4441651;32;32517;-88
2022/08/30 11:51:34;;;;;;;;;;;;;;;32.20;33.87;100016.09;4449458;32;33779;-88
2022/08/30 11:54:05;;;;;;;;;;;;;;;32.73;31.90;100006.25;4456031;32;33084;-88
2022/08/30 11:56:45;;;;;;;;;;;;;;;32.83;32.97;100006.69;4473125;31;34665;-89
2022/08/30 11:59:28;;;;;;;;;;;;;;;32.47;34.03;100004.25;4462044;31;33350;-89
2022/08/30 12:01:58;;;;;;;;;;;;;;;33.21;31.40;100000.69;4472312;31;34077;-88
2022/08/30 12:04:28;;;;;;;;;;;;;;;33.17;31.65;99993.09;4468695;31;33115;-88
2022/08/30 12:07:02;;;;;;;;;;;;;;;32.87;31.67;99997.03;4466954;31;32780;-89
2022/08/30 12:09:34;;;;;;;;;;;;;;;32.28;33.72;99994.06;4463619;31;33760;-89
2022/08/30 12:12:01;;;;;;;;;;;;;;;33.26;30.25;99984.47;4484083;31;34229;-88
2022/08/30 12:14:33;;;;;;;;;;;;;;;33.27;30.95;99991.63;4474180;31;33957;-89
2022/08/30 12:19:52;;;;;;;;;;;;;;;34.30;28.59;99980.13;4468567;31;32291;-89
2022/08/30 12:22:20;;;;;;;;;;;;;;;33.42;29.85;99976.88;4453874;31;32962;-88
2022/08/30 12:24:49;;;;;;;;;;;;;;;33.42;29.86;99972.25;4465918;31;33092;-89
2022/08/30 12:27:23;;;;;;;;;;;;;;;33.42;29.38;99965.94;4459757;32;36308;-88
2022/08/30 12:29:53;;;;;;;;;;;;;;;33.16;32.60;99973.09;4452887;32;32792;-89
2022/08/30 12:32:23;;;;;;;;;;;;;;;33.64;28.82;99959.19;4464974;32;34146;-89
2022/08/30 12:34:59;;;;;;;;;;;;;;;33.53;29.62;99960.69;4449509;32;34488;-89
2022/08/30 12:37:26;;;;;;;;;;;;;;;33.93;28.97;99951.53;4449750;32;33206;-89
2022/08/30 12:40:00;;;;;;;;;;;;;;;33.66;29.53;99945.28;4463288;32;32075;-89
2022/08/30 12:42:29;;;;;;;;;;;;;;;33.26;34.38;99954.38;4459133;32;31803;-88
2022/08/30 12:44:58;;;;;;;;;;;;;;;33.46;32.49;99946.16;4462476;32;34747;-88
2022/08/30 12:47:31;;;;;;;;;;;;;;;33.90;29.64;99947.34;4464719;32;33400;-88
2022/08/30 12:49:58;;;;;;;;;;;;;;;34.00;31.12;99938.72;4463888;32;33726;-89
2022/08/30 12:52:28;;;;;;;;;;;;;;;33.48;30.02;99927.66;4461170;32;34095;-89
2022/08/30 12:55:04;;;;;;;;;;;;;;;33.83;30.58;99936.41;4476743;32;32440;-88
2022/08/30 12:57:54;;;;;;;;;;;;;;;33.67;28.37;99925.94;4445964;32;32848;-89
2022/08/30 13:00:34;;;;;;;;;;;;;;;33.05;30.49;99922.59;4452920;32;31603;-89
2022/08/30 13:03:21;;;;;;;;;;;;;;;32.85;30.50;99925.28;4463593;32;33017;-88
2022/08/30 13:05:50;;;;;;;;;;;;;;;33.15;32.45;99924.91;4460634;32;33355;-89
2022/08/30 13:08:26;;;;;;;;;;;;;;;32.54;30.83;99928.59;4450605;32;32781;-89
2022/08/30 13:10:58;;;;;;;;;;;;;;;32.88;30.51;99922.13;4449233;32;33692;-88
2022/08/30 13:13:26;;;;;;;;;;;;;;;32.71;30.59;99920.00;4449390;32;33630;-89
2022/08/30 13:15:53;;;;;;;;;;;;;;;32.69;31.25;99914.75;4461413;32;33917;-88
2022/08/30 13:18:34;;;;;;;;;;;;;;;32.45;30.44;99920.78;4465763;32;33768;-88
2022/08/30 13:21:21;;;;;;;;;;;;;;;32.43;32.76;99917.41;4451516;32;32590;-89
2022/08/30 13:23:49;;;;;;;;;;;;;;;33.18;32.02;99902.59;4455913;32;34351;-89
2022/08/30 13:26:17;;;;;;;;;;;;;;;33.22;30.57;99901.09;4440121;32;33211;-88
2022/08/30 13:28:50;;;;;;;;;;;;;;;33.45;28.92;99902.59;4464370;31;32704;-89
2022/08/30 13:31:18;;;;;;;;;;;;;;;33.20;30.56;99903.22;4465484;31;32757;-86
2022/08/30 13:33:46;;;;;;;;;;;;;;;33.70;29.14;99898.09;4475575;32;33019;-87